Portada
METAR-TAF:

METAR-TAF

Aeroports :

Illa Christmas, Austràlia

latitud: 10-26S, longitud: 105-41E, altitud: 279 m

Observació

L'informe es va fer fa 27 minuts, a les 08:00 UTC
Vent 11 kt del Sud-Est
Temperatura 26°C
Humitat 79%
Pressió 1012 hPa
Visibilitat 10 km o més
Cel ennuvolat a una alçada de 1400 ft
Cel ennuvolat a una alçada de 1900 ft

METAR: YPXM 120800Z AUTO 13011KT 9999 // BKN014 BKN019 26/22 Q1012

Hora: 15:27 (08:27 UTC)

Pronòstic

L'informe es va fer fa 3 hores i 5 minuts, a les 05:22 UTC
Pronòstic vàlid del 12 a les 06 UTC al 13 a les 06 UTC
Vent 12 kt del Sud-Est
Visibilitat 10 km o més
Cel ennuvolat a una alçada de 1400 ft
A partir de les 12 a les 1200 UTC
Vent 12 kt del Sud-Est
Visibilitat 10 km o més
Cel ennuvolat a una alçada de 1000 ft
A partir de les 13 a les 0200 UTC
Vent 14 kt del Est/Sud-Est
Visibilitat 10 km o més
Cel ennuvolat a una alçada de 1400 ft

TAF: YPXM 120522Z 1206/1306 13012KT 9999 BKN014 FM121200 13012KT 9999 BKN010 FM130200 12014KT 9999 BKN014

Observacions i pronòstics meteorològics de més de 4000 aeroports (METAR i TAF).

Les estacions disponibles són els punts grocs i vermells al mapa.

Posi el ratolí al punt desitjat per veure el nom de l'estació.

Feu clic per veure les observacions i els pronòstics meteorològics.

Per canviar el mapa: feu clic els botons verds amb una creu de color negre per apropar; al botó verd amb un guió per allunyar la imatge; o en les fletxes verdes per a mapes adjacents.


METAR-TAF: